Time;durP1;ratioP1;P1;durP2;ratioP2;P2;SDS_P1;SDS_P2;PMS_P1;PMS_P2;Temp;Humidity;BMP_temperature;BMP_pressure;BME280_temperature;BME280_humidity;BME280_pressure;Samples;Min_cycle;Max_cycle;Signal;HPM_P1;HPM_P2
2023/06/04 00:00:04;;;;;;;11.73;5.00;;;;;;;-145.69;100.00;52095.84;5073452;28;20194;-83
2023/06/04 00:02:30;;;;;;;12.52;5.45;;;;;;;-145.69;100.00;52085.94;5073340;28;20214;-83
2023/06/04 00:04:57;;;;;;;9.52;4.90;;;;;;;-145.69;100.00;52115.66;5072434;28;20207;-83
2023/06/04 00:07:23;;;;;;;9.47;4.90;;;;;;;-145.69;99.35;52099.81;5073030;28;20202;-83
2023/06/04 00:09:50;;;;;;;10.25;4.47;;;;;;;-145.69;97.73;52103.78;5073422;28;20202;-83
2023/06/04 00:12:16;;;;;;;9.07;4.63;;;;;;;-145.69;96.68;52082.00;5073185;28;20583;-83
2023/06/04 00:14:44;;;;;;;10.80;5.03;;;;;;;-145.69;97.11;52095.84;5073357;28;20210;-83
2023/06/04 00:17:11;;;;;;;10.10;4.90;;;;;;;-145.69;96.51;52107.72;5073155;28;20199;-83
2023/06/04 00:19:40;;;;;;;10.95;4.70;;;;;;;-145.69;95.10;52093.88;5073474;28;20202;-83
2023/06/04 00:22:06;;;;;;;7.05;4.32;;;;;;;-145.69;94.15;52129.50;5073256;28;20199;-84
2023/06/04 00:24:33;;;;;;;10.57;4.93;;;;;;;-145.69;94.18;52117.63;5073281;28;20600;-82
2023/06/04 00:26:59;;;;;;;10.30;4.72;;;;;;;-145.69;92.25;52115.66;5073309;28;20199;-83
2023/06/04 00:29:26;;;;;;;8.83;4.30;;;;;;;-145.69;92.97;52113.66;5073359;28;20203;-83
2023/06/04 00:31:54;;;;;;;11.15;4.50;;;;;;;-145.69;92.51;52107.72;5073090;28;20230;-84
2023/06/04 00:34:21;;;;;;;8.47;4.17;;;;;;;-145.69;90.88;52072.09;5072834;28;20206;-83
2023/06/04 00:36:50;;;;;;;14.37;4.40;;;;;;;-145.69;91.45;52107.72;5073080;28;20245;-83
2023/06/04 00:39:17;;;;;;;6.80;3.75;;;;;;;-145.69;90.11;52125.56;5073160;28;20202;-83
2023/06/04 00:41:44;;;;;;;9.82;5.03;;;;;;;-145.69;90.95;52103.78;5073501;28;20198;-84
2023/06/04 00:44:11;;;;;;;8.95;4.70;;;;;;;-145.69;89.06;52095.84;5073211;28;20214;-83
2023/06/04 00:46:38;;;;;;;10.15;4.35;;;;;;;-145.69;89.94;52127.53;5072745;28;20642;-84
2023/06/04 00:49:07;;;;;;;11.27;4.70;;;;;;;-145.69;88.72;52103.78;5073553;28;20195;-83
2023/06/04 00:51:34;;;;;;;8.43;4.22;;;;;;;-145.69;91.46;52129.50;5073090;28;20227;-83
2023/06/04 00:54:08;;;;;;;9.40;4.27;;;;;;;-145.69;93.37;52089.91;5072497;28;20206;-83
2023/06/04 00:56:41;;;;;;;10.63;4.53;;;;;;;-145.69;91.31;52121.59;5073300;28;20229;-82
2023/06/04 00:59:10;;;;;;;8.40;4.55;;;;;;;-145.69;93.82;52064.16;5072844;28;20206;-84
2023/06/04 01:01:45;;;;;;;9.87;4.13;;;;;;;-145.69;93.66;52115.66;5073075;28;20650;-83
2023/06/04 01:04:17;;;;;;;7.70;4.13;;;;;;;-145.69;91.64;52109.72;5072707;28;20225;-82
2023/06/04 01:06:46;;;;;;;8.03;4.80;;;;;;;-145.69;91.16;52135.47;5073001;28;20226;-82
2023/06/04 01:09:17;;;;;;;11.03;4.37;;;;;;;-145.69;91.24;52101.78;5083694;28;20652;-85
2023/06/04 01:11:43;;;;;;;12.80;4.20;;;;;;;-145.69;93.16;52111.69;5092909;28;20251;-83
2023/06/04 01:14:10;;;;;;;8.30;4.20;;;;;;;-145.69;92.78;52151.28;5091068;28;20202;-81
2023/06/04 01:16:40;;;;;;;6.63;4.13;;;;;;;-145.69;92.47;52125.56;5072563;28;20199;-83
2023/06/04 01:19:24;;;;;;;7.65;4.40;;;;;;;-145.69;93.79;52125.56;5064841;28;20206;-83
2023/06/04 01:21:53;;;;;;;10.68;4.30;;;;;;;-145.69;92.29;52103.78;5072769;28;20206;-82
2023/06/04 01:24:23;;;;;;;8.27;4.37;;;;;;;-145.69;93.72;52083.97;5059762;28;20214;-84
2023/06/04 01:26:51;;;;;;;14.02;4.68;;;;;;;-145.69;93.33;52080.00;5052724;28;20195;-83
2023/06/04 01:29:18;;;;;;;12.65;4.53;;;;;;;-145.69;94.45;52103.78;5052868;28;20291;-84
2023/06/04 01:31:45;;;;;;;9.63;4.60;;;;;;;-145.69;92.46;52117.63;5061439;28;20224;-83
2023/06/04 01:34:12;;;;;;;11.80;4.70;;;;;;;-145.69;92.44;52131.50;5073553;28;20202;-84
2023/06/04 01:36:39;;;;;;;14.95;4.57;;;;;;;-145.69;94.58;52105.75;5073347;28;20203;-84
2023/06/04 01:39:06;;;;;;;8.60;4.47;;;;;;;-145.69;92.94;52099.81;5074181;28;20205;-83
2023/06/04 01:41:32;;;;;;;8.17;4.37;;;;;;;-145.69;91.86;52121.59;5073597;28;20203;-82
2023/06/04 01:43:59;;;;;;;6.83;4.20;;;;;;;-145.69;93.26;52103.78;5074331;28;20205;-83
2023/06/04 01:46:25;;;;;;;7.93;4.57;;;;;;;-145.69;93.97;52107.72;5073985;28;20199;-84
2023/06/04 01:48:52;;;;;;;12.23;5.40;;;;;;;-145.69;94.76;52095.84;5073807;28;20209;-83
2023/06/04 01:51:18;;;;;;;15.07;4.77;;;;;;;-145.69;96.77;52131.50;5073768;28;20315;-84
2023/06/04 01:53:46;;;;;;;11.60;4.20;;;;;;;-145.69;96.45;52097.84;5075184;28;20206;-83
2023/06/04 01:56:14;;;;;;;8.43;4.43;;;;;;;-145.69;95.46;52123.56;5076464;28;20203;-84
2023/06/04 01:58:41;;;;;;;12.53;4.60;;;;;;;-145.69;97.89;52115.66;5078199;28;20203;-85
2023/06/04 02:01:09;;;;;;;8.10;4.23;;;;;;;-145.69;99.63;52123.56;5077270;28;20199;-84
2023/06/04 02:03:38;;;;;;;6.93;4.00;;;;;;;-145.69;100.00;52129.50;5077273;28;20561;-84
2023/06/04 02:06:07;;;;;;;10.57;4.60;;;;;;;-145.69;100.00;52147.34;5076772;28;20268;-84
2023/06/04 02:08:33;;;;;;;8.27;4.93;;;;;;;-145.69;100.00;52155.25;5076188;28;20225;-84
2023/06/04 02:11:01;;;;;;;11.73;4.73;;;;;;;-145.69;100.00;52111.69;5076937;28;20222;-85
2023/06/04 02:13:28;;;;;;;13.50;4.67;;;;;;;-145.69;100.00;52149.31;5076319;28;20203;-85
2023/06/04 02:15:54;;;;;;;8.50;4.90;;;;;;;-145.69;100.00;52149.31;5076913;28;20206;-84
2023/06/04 02:18:22;;;;;;;10.00;4.70;;;;;;;-145.69;100.00;52155.25;5076401;28;20203;-84
2023/06/04 02:20:50;;;;;;;9.63;4.23;;;;;;;-145.69;100.00;52143.38;5075526;28;20552;-83
2023/06/04 02:23:18;;;;;;;10.03;5.60;;;;;;;-145.69;100.00;52149.31;5076123;28;20199;-83
2023/06/04 02:25:49;;;;;;;8.93;4.60;;;;;;;-145.69;100.00;52139.41;5076374;28;20240;-84
2023/06/04 02:28:17;;;;;;;6.77;4.40;;;;;;;-145.69;100.00;52151.28;5076255;28;20313;-84
2023/06/04 02:30:45;;;;;;;9.53;4.70;;;;;;;-145.69;100.00;52179.03;5076459;28;20596;-84
2023/06/04 02:33:12;;;;;;;11.37;4.93;;;;;;;-145.69;100.00;52161.19;5076769;28;20202;-84
2023/06/04 02:35:38;;;;;;;8.73;4.43;;;;;;;-145.69;100.00;52119.63;5076648;28;20644;-84
2023/06/04 02:38:05;;;;;;;10.27;5.07;;;;;;;-145.69;100.00;52159.22;5076175;28;20195;-85
2023/06/04 02:40:31;;;;;;;10.33;4.63;;;;;;;-145.69;100.00;52143.38;5076774;28;20195;-84
2023/06/04 02:42:58;;;;;;;11.80;4.33;;;;;;;-145.69;100.00;52143.38;5074862;28;20203;-84
2023/06/04 02:45:26;;;;;;;9.63;4.93;;;;;;;-145.69;100.00;52153.28;5077173;28;20203;-84
2023/06/04 02:47:53;;;;;;;10.37;4.87;;;;;;;-145.69;100.00;52147.34;5076390;28;20226;-83
2023/06/04 02:50:19;;;;;;;12.53;4.80;;;;;;;-145.69;100.00;52151.28;5076030;28;20291;-84
2023/06/04 02:52:46;;;;;;;8.50;5.00;;;;;;;-145.69;100.00;52173.09;5076023;28;20227;-83
2023/06/04 02:55:13;;;;;;;9.40;5.43;;;;;;;-145.69;100.00;52165.16;5075189;28;20203;-83
2023/06/04 02:57:41;;;;;;;11.63;4.63;;;;;;;-145.69;100.00;52181.00;5076895;28;20324;-84
2023/06/04 03:00:12;;;;;;;9.13;4.90;;;;;;;-145.69;100.00;52159.22;5074867;28;20590;-84
2023/06/04 03:02:40;;;;;;;9.40;4.80;;;;;;;-145.69;100.00;52129.50;5075385;28;20202;-84
2023/06/04 03:05:10;;;;;;;7.73;4.53;;;;;;;-145.69;100.00;52145.34;5075865;28;20194;-84
2023/06/04 03:07:37;;;;;;;9.23;4.33;;;;;;;-145.69;100.00;52145.34;5075027;28;20195;-84
2023/06/04 03:10:06;;;;;;;10.37;4.80;;;;;;;-145.69;100.00;52135.47;5075261;28;20286;-83
2023/06/04 03:12:40;;;;;;;10.43;4.40;;;;;;;-145.69;100.00;52169.13;5074415;28;20623;-82
2023/06/04 03:15:11;;;;;;;9.27;4.50;;;;;;;-145.69;100.00;52141.41;5074305;28;20194;-83
2023/06/04 03:17:39;;;;;;;8.00;4.53;;;;;;;-145.69;100.00;52143.38;5073974;28;20218;-83
2023/06/04 03:20:11;;;;;;;12.53;4.30;;;;;;;-145.69;100.00;52182.97;5069997;28;20222;-83
2023/06/04 03:22:38;;;;;;;7.43;4.13;;;;;;;-145.69;100.00;52159.22;5055682;28;20297;-83
2023/06/04 03:25:06;;;;;;;8.97;4.70;;;;;;;-145.69;100.00;52119.63;5094141;28;20190;-83
2023/06/04 03:27:34;;;;;;;11.40;5.10;;;;;;;-145.69;100.00;52143.38;5094716;28;20198;-83
2023/06/04 03:30:03;;;;;;;9.20;4.60;;;;;;;-145.69;100.00;52171.09;5084308;28;20195;-83
2023/06/04 03:32:29;;;;;;;11.13;5.03;;;;;;;-145.69;100.00;52188.91;5073978;28;20233;-83
2023/06/04 03:34:56;;;;;;;8.40;5.13;;;;;;;-145.69;100.00;52127.53;5075030;28;20199;-83
2023/06/04 03:37:24;;;;;;;6.27;3.97;;;;;;;-145.69;100.00;52131.50;5073991;28;20194;-82
2023/06/04 03:39:50;;;;;;;11.17;5.33;;;;;;;-145.69;100.00;52143.38;5073964;28;20199;-83
2023/06/04 03:42:17;;;;;;;12.00;4.67;;;;;;;-145.69;100.00;52173.09;5073932;28;20238;-82
2023/06/04 03:44:43;;;;;;;10.80;4.50;;;;;;;-145.69;100.00;52153.28;5073457;28;20215;-83
2023/06/04 03:47:10;;;;;;;8.43;4.67;;;;;;;-145.69;100.00;52192.88;5073346;28;20684;-82
2023/06/04 03:49:36;;;;;;;7.43;4.27;;;;;;;-145.69;100.00;52133.47;5073808;28;20195;-82
2023/06/04 03:52:03;;;;;;;7.50;4.03;;;;;;;-145.69;100.00;52163.19;5073529;28;20273;-81
2023/06/04 03:54:31;;;;;;;8.33;5.00;;;;;;;-145.69;100.00;52190.91;5073487;28;20246;-82
2023/06/04 03:56:58;;;;;;;8.70;4.73;;;;;;;-145.69;100.00;52153.28;5073447;28;20194;-82
2023/06/04 03:59:24;;;;;;;10.23;4.50;;;;;;;-145.69;100.00;52173.09;5073453;28;20222;-83
2023/06/04 04:01:50;;;;;;;7.90;5.00;;;;;;;-145.69;100.00;52149.31;5073515;28;20211;-83
2023/06/04 04:04:20;;;;;;;9.63;4.90;;;;;;;-145.69;100.00;52177.03;5073383;28;20221;-82
2023/06/04 04:06:46;;;;;;;8.67;5.10;;;;;;;-145.69;100.00;52167.13;5073156;28;20290;-83
2023/06/04 04:09:13;;;;;;;10.03;4.50;;;;;;;-145.69;100.00;52147.34;5073524;28;20240;-83
2023/06/04 04:11:42;;;;;;;12.37;5.10;;;;;;;-145.69;100.00;52167.13;5073343;28;20674;-82
2023/06/04 04:14:08;;;;;;;12.53;5.00;;;;;;;-145.69;100.00;52151.28;5073112;28;20289;-82
2023/06/04 04:16:35;;;;;;;12.67;4.73;;;;;;;-145.69;100.00;52155.25;5073317;28;20214;-82
2023/06/04 04:19:01;;;;;;;9.20;4.80;;;;;;;-145.69;100.00;52190.91;5072786;28;20594;-83
2023/06/04 04:21:28;;;;;;;9.97;4.90;;;;;;;-145.69;100.00;52165.16;5073191;28;20194;-83
2023/06/04 04:23:55;;;;;;;9.00;4.50;;;;;;;-145.69;100.00;52137.44;5072740;28;20203;-83
2023/06/04 04:26:27;;;;;;;9.57;4.83;;;;;;;-145.69;100.00;52131.50;5073335;28;20208;-83
2023/06/04 04:28:57;;;;;;;7.43;4.57;;;;;;;-145.69;100.00;52163.19;5073155;28;20198;-83
2023/06/04 04:31:25;;;;;;;11.23;4.80;;;;;;;-145.69;100.00;52173.09;5073366;28;20198;-82
2023/06/04 04:33:52;;;;;;;11.80;4.80;;;;;;;-145.69;100.00;52165.16;5072948;28;20893;-83
2023/06/04 04:36:18;;;;;;;6.13;4.37;;;;;;;-145.69;100.00;52184.97;5073387;28;20195;-84
2023/06/04 04:38:45;;;;;;;8.20;4.63;;;;;;;-145.69;100.00;52143.38;5073566;28;20198;-83
2023/06/04 04:41:13;;;;;;;9.80;4.80;;;;;;;-145.69;100.00;52163.19;5073914;28;20206;-84
2023/06/04 04:43:40;;;;;;;13.73;5.60;;;;;;;-145.69;100.00;52198.81;5072868;28;20439;-83
2023/06/04 04:46:09;;;;;;;9.53;4.77;;;;;;;-145.69;100.00;52169.13;5073371;28;20252;-83
2023/06/04 04:48:38;;;;;;;9.47;4.87;;;;;;;-145.69;100.00;52177.03;5072881;28;20228;-83
2023/06/04 04:51:04;;;;;;;10.80;4.57;;;;;;;-145.69;100.00;52161.19;5073285;28;20708;-83
2023/06/04 04:53:31;;;;;;;10.40;4.70;;;;;;;-145.69;100.00;52133.47;5072827;28;20237;-83
2023/06/04 04:55:58;;;;;;;8.83;4.57;;;;;;;-145.69;100.00;52125.56;5073256;28;20646;-83
2023/06/04 04:58:27;;;;;;;10.23;4.80;;;;;;;-145.69;100.00;52163.19;5072966;28;20202;-83
2023/06/04 05:00:53;;;;;;;7.77;4.93;;;;;;;-145.69;100.00;52175.06;5073000;28;20206;-83
2023/06/04 05:03:21;;;;;;;9.83;4.90;;;;;;;-145.69;100.00;52161.19;5073201;28;20670;-83
2023/06/04 05:05:48;;;;;;;7.27;4.70;;;;;;;-145.69;100.00;52161.19;5073252;28;20214;-83
2023/06/04 05:08:14;;;;;;;8.13;4.37;;;;;;;-145.69;100.00;52139.41;5073188;28;20198;-83
2023/06/04 05:10:41;;;;;;;6.90;4.10;;;;;;;-145.69;100.00;52206.75;5073141;28;20190;-83
2023/06/04 05:13:07;;;;;;;7.80;4.33;;;;;;;-145.69;100.00;52173.09;5072732;28;20236;-83
2023/06/04 05:15:34;;;;;;;8.90;4.00;;;;;;;-145.69;100.00;52155.25;5072434;28;20621;-84
2023/06/04 05:18:01;;;;;;;7.67;4.17;;;;;;;-145.69;100.00;52139.41;5072736;28;20553;-83
2023/06/04 05:20:29;;;;;;;10.20;4.37;;;;;;;-145.69;100.00;52155.25;5072539;28;20286;-83
2023/06/04 05:22:56;;;;;;;7.47;4.33;;;;;;;-145.69;100.00;52111.69;5068896;28;20202;-83
2023/06/04 05:25:23;;;;;;;10.50;3.90;;;;;;;-145.69;100.00;52175.06;5072747;28;20248;-83
2023/06/04 05:27:50;;;;;;;10.80;4.50;;;;;;;-145.69;100.00;52179.03;5072560;28;20658;-83
2023/06/04 05:30:17;;;;;;;10.43;4.63;;;;;;;-145.69;100.00;52113.66;5074121;28;20199;-83
2023/06/04 05:32:44;;;;;;;9.87;5.00;;;;;;;-145.69;100.00;52095.84;5076494;28;20218;-83
2023/06/04 05:35:12;;;;;;;9.67;5.10;;;;;;;-145.69;100.00;52123.56;5076717;28;20199;-83
2023/06/04 05:37:41;;;;;;;10.57;4.97;;;;;;;-145.69;100.00;52147.34;5076716;28;20557;-83
2023/06/04 05:40:11;;;;;;;8.55;5.03;;;;;;;-145.69;100.00;52123.56;5076811;28;20199;-83
2023/06/04 05:42:38;;;;;;;9.73;3.97;;;;;;;-145.69;100.00;52111.69;5075675;28;20592;-85
2023/06/04 05:45:08;;;;;;;6.90;4.20;;;;;;;-145.69;100.00;52167.13;5076385;28;20683;-83
2023/06/04 05:47:34;;;;;;;11.75;4.30;;;;;;;-145.69;100.00;52139.41;5076032;28;20329;-84
2023/06/04 05:50:01;;;;;;;6.88;4.05;;;;;;;-145.69;100.00;52127.53;5075821;28;20233;-83
2023/06/04 05:52:27;;;;;;;8.65;4.22;;;;;;;-145.69;100.00;52119.63;5076054;28;20713;-84
2023/06/04 05:54:55;;;;;;;15.10;4.85;;;;;;;-145.69;97.20;52107.72;5075930;28;20207;-83
2023/06/04 05:57:22;;;;;;;8.18;4.15;;;;;;;-145.69;95.25;52115.66;5080486;28;20617;-84
2023/06/04 05:59:48;;;;;;;12.20;4.47;;;;;;;-145.69;94.51;52099.81;5057769;28;20617;-84
2023/06/04 06:02:18;;;;;;;7.30;4.30;;;;;;;-145.69;92.01;52101.78;5062505;28;20286;-83
2023/06/04 06:04:44;;;;;;;11.25;4.53;;;;;;;-145.69;89.26;52080.00;5075955;28;20290;-83
2023/06/04 06:07:13;;;;;;;9.40;4.40;;;;;;;-145.69;94.42;52103.78;5076958;28;20206;-84
2023/06/04 06:09:39;;;;;;;7.82;4.25;;;;;;;-145.69;91.96;52103.78;5077032;28;20214;-83
2023/06/04 06:12:07;;;;;;;9.45;4.47;;;;;;;-145.69;93.29;52107.72;5077895;28;20229;-83
2023/06/04 06:14:34;;;;;;;6.88;4.45;;;;;;;-145.69;90.02;52091.88;5077787;28;20240;-82
2023/06/04 06:17:03;;;;;;;9.32;3.97;;;;;;;-145.69;92.77;52137.44;5076628;28;20289;-83
2023/06/04 06:19:29;;;;;;;10.32;3.65;;;;;;;-145.69;91.97;52103.78;5074942;28;20202;-81
2023/06/04 06:21:58;;;;;;;10.48;4.60;;;;;;;-145.69;87.68;52089.91;5071844;28;20191;-81
2023/06/04 06:24:25;;;;;;;9.60;4.05;;;;;;;-145.69;87.38;52062.19;5075252;28;20190;-82
2023/06/04 06:26:51;;;;;;;8.88;3.95;;;;;;;-145.69;85.42;52095.84;5074642;28;20240;-84
2023/06/04 06:29:19;;;;;;;6.72;4.05;;;;;;;-145.69;91.74;52068.13;5075391;28;20190;-82
2023/06/04 06:31:46;;;;;;;13.05;4.20;;;;;;;-145.69;88.10;52076.03;5075239;28;20237;-82
2023/06/04 06:34:15;;;;;;;7.53;4.35;;;;;;;-145.69;87.12;52072.09;5075618;28;20235;-81
2023/06/04 06:36:41;;;;;;;10.02;4.60;;;;;;;-145.69;90.86;52099.81;5075645;28;20201;-84
2023/06/04 06:39:08;;;;;;;10.45;4.68;;;;;;;-145.69;86.85;52089.91;5075479;28;20202;-83
2023/06/04 06:41:36;;;;;;;11.30;4.18;;;;;;;-145.69;87.14;52068.13;5074462;28;20202;-84
2023/06/04 06:44:03;;;;;;;8.85;4.55;;;;;;;-145.69;88.21;52072.09;5075308;28;20199;-81
2023/06/04 06:46:31;;;;;;;7.40;4.35;;;;;;;-145.69;87.69;52091.88;5074432;28;20205;-81
2023/06/04 06:48:58;;;;;;;8.65;4.40;;;;;;;-145.69;89.90;52034.47;5073929;28;20199;-84
2023/06/04 06:51:24;;;;;;;8.18;4.15;;;;;;;-145.69;86.29;52080.00;5074718;28;20206;-84
2023/06/04 06:53:51;;;;;;;9.68;5.50;;;;;;;-145.69;85.44;52062.19;5074701;28;20233;-85
2023/06/04 06:56:18;;;;;;;7.88;5.15;;;;;;;-145.69;90.30;52076.03;5074913;28;20187;-84
2023/06/04 06:58:46;;;;;;;10.57;5.05;;;;;;;-145.69;90.67;52101.78;5074762;28;20278;-83
2023/06/04 07:01:13;;;;;;;14.60;6.10;;;;;;;-145.69;90.45;52083.97;5074339;28;20203;-84
2023/06/04 07:03:41;;;;;;;10.73;5.47;;;;;;;-145.69;90.86;52091.88;5074342;28;20207;-83
2023/06/04 07:06:07;;;;;;;11.27;6.00;;;;;;;-145.69;94.30;52062.19;5074497;28;20199;-86
2023/06/04 07:08:36;;;;;;;11.40;5.47;;;;;;;-145.69;92.85;52064.16;5075064;28;20198;-85
2023/06/04 07:11:04;;;;;;;10.23;5.53;;;;;;;-145.69;90.19;52060.22;5074907;28;20198;-86
2023/06/04 07:13:32;;;;;;;14.82;6.13;;;;;;;-145.69;89.91;52064.16;5074427;28;20222;-85
2023/06/04 07:15:58;;;;;;;11.90;5.60;;;;;;;-145.69;92.10;52080.00;5074259;28;20269;-86
2023/06/04 07:18:28;;;;;;;11.60;5.80;;;;;;;-145.69;90.36;52066.16;5074489;28;20256;-85
2023/06/04 07:20:56;;;;;;;14.52;6.28;;;;;;;-145.69;90.86;52070.09;5073709;28;20230;-83
2023/06/04 07:23:22;;;;;;;17.30;6.07;;;;;;;-145.69;92.79;52091.88;5073818;28;20202;-83
2023/06/04 07:25:49;;;;;;;12.30;5.28;;;;;;;-145.69;90.29;52085.94;5074151;28;20646;-84
2023/06/04 07:28:15;;;;;;;11.50;6.22;;;;;;;-145.69;89.14;52068.13;5074026;28;20194;-84
2023/06/04 07:30:45;;;;;;;9.25;5.70;;;;;;;-145.69;88.19;52097.84;5063776;28;20199;-84
2023/06/04 07:33:12;;;;;;;12.38;6.50;;;;;;;-145.69;88.49;52083.97;5054397;28;20227;-84
2023/06/04 07:35:41;;;;;;;11.00;6.18;;;;;;;-145.69;89.33;52085.94;5068718;28;20252;-82
2023/06/04 07:38:09;;;;;;;11.10;5.90;;;;;;;-145.69;90.00;52099.81;5073366;28;20190;-84
2023/06/04 07:40:35;;;;;;;9.20;5.50;;;;;;;-145.69;90.85;52046.34;5074086;28;20202;-84
2023/06/04 07:43:02;;;;;;;12.65;5.60;;;;;;;-145.69;86.91;52064.16;5073587;28;20205;-85
2023/06/04 07:45:29;;;;;;;11.77;5.50;;;;;;;-145.69;84.59;52022.59;5073882;28;20198;-85
2023/06/04 07:47:55;;;;;;;18.25;6.13;;;;;;;-145.69;83.04;52064.16;5073244;28;20234;-84
2023/06/04 07:50:22;;;;;;;9.88;4.85;;;;;;;-145.69;86.48;52052.28;5073608;28;20198;-84
2023/06/04 07:52:48;;;;;;;8.77;5.13;;;;;;;-145.69;77.65;52044.38;5073162;28;20227;-85
2023/06/04 07:55:16;;;;;;;8.77;4.80;;;;;;;-145.69;78.04;52012.69;5073607;28;20244;-83
2023/06/04 07:57:43;;;;;;;11.57;4.70;;;;;;;-145.69;75.84;52058.22;5073819;28;20199;-85
2023/06/04 08:00:12;;;;;;;8.60;4.90;;;;;;;-145.69;77.00;52052.28;5073510;28;20237;-84
2023/06/04 08:02:38;;;;;;;8.15;4.60;;;;;;;-145.69;77.68;52028.53;5073366;28;20187;-84
2023/06/04 08:05:05;;;;;;;8.23;5.07;;;;;;;-145.69;74.68;52052.28;5073546;28;20199;-83
2023/06/04 08:07:31;;;;;;;11.15;5.00;;;;;;;-145.69;76.17;52030.50;5073438;28;20194;-83
2023/06/04 08:09:58;;;;;;;9.38;5.25;;;;;;;-145.69;69.12;52038.44;5073394;28;20232;-83
2023/06/04 08:12:26;;;;;;;9.20;4.90;;;;;;;-145.69;65.45;52040.41;5073139;28;20289;-84
2023/06/04 08:14:56;;;;;;;11.55;4.30;;;;;;;-145.69;72.34;52036.44;5073406;28;20231;-83
2023/06/04 08:17:25;;;;;;;11.05;4.70;;;;;;;-145.69;69.28;52016.66;5073061;28;20209;-83
2023/06/04 08:19:51;;;;;;;9.45;5.03;;;;;;;-145.69;74.92;52028.53;5072878;28;20248;-84
2023/06/04 08:22:18;;;;;;;8.88;4.80;;;;;;;-145.69;74.26;51998.81;5073296;28;20198;-83
2023/06/04 08:24:46;;;;;;;12.70;5.05;;;;;;;-145.69;69.11;52010.69;5072792;28;20211;-82
2023/06/04 08:27:13;;;;;;;13.00;4.28;;;;;;;-145.69;53.25;52004.75;5072692;28;20241;-84
2023/06/04 08:29:45;;;;;;;11.40;4.47;;;;;;;-145.69;45.52;52040.41;5072886;28;20207;-82
2023/06/04 08:32:11;;;;;;;5.90;3.90;;;;;;;-145.69;44.80;51986.94;5073245;28;20610;-83
2023/06/04 08:34:48;;;;;;;8.32;3.85;;;;;;;-145.69;55.49;51988.91;5072289;28;20689;-84
2023/06/04 08:37:15;;;;;;;8.07;4.10;;;;;;;-145.69;47.46;51955.25;5072950;28;20211;-83
2023/06/04 08:39:42;;;;;;;9.15;4.40;;;;;;;-145.69;60.46;51937.44;5072643;28;20217;-81
2023/06/04 08:42:20;;;;;;;15.55;4.57;;;;;;;-145.69;62.17;51971.09;5073103;28;20202;-82
2023/06/04 08:44:53;;;;;;;10.18;4.43;;;;;;;-145.69;65.21;51984.97;5073096;28;20206;-83
2023/06/04 08:47:20;;;;;;;11.00;4.30;;;;;;;-145.69;55.41;51992.88;5072489;28;20753;-81
2023/06/04 08:49:52;;;;;;;10.88;4.95;;;;;;;-145.69;55.95;51969.13;5072739;28;20195;-85
2023/06/04 08:52:21;;;;;;;7.50;4.65;;;;;;;-145.69;51.61;52000.81;5072332;28;20626;-83
2023/06/04 08:54:50;;;;;;;7.72;3.97;;;;;;;-145.69;49.20;51988.91;5072450;28;20700;-84
2023/06/04 08:57:18;;;;;;;7.03;3.58;;;;;;;-145.69;46.56;51973.06;5072885;28;20609;-81
2023/06/04 08:59:46;;;;;;;6.75;3.67;;;;;;;-145.69;43.97;51977.03;5072867;28;20225;-82
2023/06/04 09:02:14;;;;;;;6.10;3.70;;;;;;;-145.69;49.18;51961.19;5071674;28;20207;-82
2023/06/04 09:04:42;;;;;;;7.88;4.10;;;;;;;-145.69;42.90;51945.34;5075071;28;20542;-81
2023/06/04 09:07:12;;;;;;;13.73;4.47;;;;;;;-145.69;42.80;51939.41;5077343;28;20256;-83
2023/06/04 09:09:40;;;;;;;5.60;3.88;;;;;;;-145.69;43.26;51949.31;5076440;28;20194;-84
2023/06/04 09:12:12;;;;;;;8.63;4.18;;;;;;;-145.69;42.67;51975.06;5076382;28;20190;-84
2023/06/04 09:14:39;;;;;;;8.35;4.18;;;;;;;-145.69;42.67;51963.19;5076547;28;20626;-81
2023/06/04 09:17:06;;;;;;;9.98;3.92;;;;;;;-145.69;44.17;52004.75;5076701;28;20205;-81
2023/06/04 09:19:34;;;;;;;6.38;3.80;;;;;;;-145.69;42.91;51984.97;5076073;28;20190;-82
2023/06/04 09:22:02;;;;;;;8.35;4.25;;;;;;;-145.69;42.52;51998.81;5073257;28;20203;-82
2023/06/04 09:24:45;;;;;;;11.35;3.97;;;;;;;-145.69;41.91;51973.06;5055271;28;20205;-83
2023/06/04 09:27:13;;;;;;;8.60;3.72;;;;;;;-145.69;41.54;51965.16;5064886;28;20222;-84
2023/06/04 09:29:40;;;;;;;7.07;3.60;;;;;;;-145.69;43.02;51965.16;5075355;28;20207;-82
2023/06/04 09:32:06;;;;;;;7.63;3.80;;;;;;;-145.69;48.03;51975.06;5076323;28;20293;-82
2023/06/04 09:34:35;;;;;;;10.27;3.90;;;;;;;-145.69;49.04;52014.66;5076122;28;20704;-82
2023/06/04 09:37:15;;;;;;;8.35;4.07;;;;;;;-145.69;55.67;52014.66;5074609;28;20541;-82
2023/06/04 09:39:42;;;;;;;7.22;3.40;;;;;;;-145.69;55.60;51979.03;5075835;28;20191;-80
2023/06/04 09:42:09;;;;;;;7.32;3.97;;;;;;;-145.69;57.64;51981.00;5076098;28;20202;-81
2023/06/04 09:44:44;;;;;;;9.80;3.80;;;;;;;-145.69;50.71;52002.78;5075561;28;20293;-80
2023/06/04 09:47:10;;;;;;;5.32;3.65;;;;;;;-145.69;50.95;51984.97;5075820;28;20314;-81
2023/06/04 09:49:42;;;;;;;6.65;3.53;;;;;;;-145.69;57.77;51992.88;5075696;28;20244;-82
2023/06/04 09:52:09;;;;;;;8.52;4.00;;;;;;;-145.69;56.14;51998.81;5075781;28;20227;-83
2023/06/04 09:54:37;;;;;;;8.90;4.05;;;;;;;-145.69;54.17;51984.97;5075554;28;20233;-85
2023/06/04 09:57:05;;;;;;;9.63;3.80;;;;;;;-145.69;52.55;52004.75;5075806;28;20233;-82
2023/06/04 09:59:39;;;;;;;6.47;4.13;;;;;;;-145.69;48.37;51981.00;5074386;28;20475;-84
2023/06/04 10:02:09;;;;;;;6.43;3.67;;;;;;;-145.69;50.84;51996.84;5074828;28;20202;-83
2023/06/04 10:04:38;;;;;;;8.80;4.10;;;;;;;-145.69;44.40;51982.97;5055425;28;20195;-82
2023/06/04 10:07:08;;;;;;;6.22;3.60;;;;;;;-145.69;46.91;51984.97;5055458;28;20207;-83
2023/06/04 10:09:45;;;;;;;8.38;4.20;;;;;;;-145.69;42.93;52000.81;5065650;28;20198;-82
2023/06/04 10:12:15;;;;;;;9.55;4.05;;;;;;;-145.69;43.28;51979.03;5075494;28;20679;-84
2023/06/04 10:14:46;;;;;;;5.88;3.42;;;;;;;-145.69;41.80;51982.97;5075026;28;20593;-82
2023/06/04 10:17:14;;;;;;;9.65;4.20;;;;;;;-145.69;41.19;51975.06;5075026;28;20523;-83
2023/06/04 10:19:44;;;;;;;7.60;3.78;;;;;;;-145.69;44.45;51945.34;5074961;28;20681;-83
2023/06/04 10:22:13;;;;;;;8.68;4.13;;;;;;;-145.69;43.14;51992.88;5075637;28;20202;-80
2023/06/04 10:24:41;;;;;;;6.35;3.60;;;;;;;-145.69;41.77;51941.41;5075469;28;20198;-82
2023/06/04 10:27:10;;;;;;;8.27;3.88;;;;;;;-145.69;40.48;51943.38;5074810;28;20198;-82
2023/06/04 10:29:37;;;;;;;5.30;3.50;;;;;;;-145.69;40.21;51925.56;5075239;28;20226;-81
2023/06/04 10:32:05;;;;;;;8.77;3.90;;;;;;;-145.69;39.82;51937.44;5075166;28;20202;-81
2023/06/04 10:34:33;;;;;;;10.25;3.78;;;;;;;-145.69;40.73;51943.38;5074840;28;20635;-82
2023/06/04 10:37:00;;;;;;;8.45;3.60;;;;;;;-145.69;38.86;51947.34;5075418;28;20201;-83
2023/06/04 10:39:29;;;;;;;9.15;3.65;;;;;;;-145.69;39.79;51925.56;5074982;28;20280;-82
2023/06/04 10:42:00;;;;;;;9.57;4.00;;;;;;;-145.69;38.15;51943.38;5057146;28;20419;-83
2023/06/04 10:44:26;;;;;;;7.22;3.42;;;;;;;-145.69;40.47;51967.13;5059070;28;20661;-82
2023/06/04 10:46:53;;;;;;;9.15;3.90;;;;;;;-145.69;38.55;51955.25;5071825;28;20226;-80
2023/06/04 10:49:28;;;;;;;8.82;4.05;;;;;;;-145.69;40.60;51949.31;5072563;28;20191;-84
2023/06/04 10:51:56;;;;;;;9.10;3.97;;;;;;;-145.69;39.59;51933.47;5064650;28;20251;-82
2023/06/04 10:54:26;;;;;;;7.47;3.72;;;;;;;-145.69;40.35;51925.56;5065212;28;20226;-82
2023/06/04 10:56:54;;;;;;;6.97;3.38;;;;;;;-145.69;43.18;51947.34;5068470;28;20207;-84
2023/06/04 10:59:21;;;;;;;6.25;3.50;;;;;;;-145.69;41.79;51949.31;5077265;28;20195;-82
2023/06/04 11:01:48;;;;;;;5.80;3.70;;;;;;;-145.69;42.18;51941.41;5071731;28;20569;-82
2023/06/04 11:04:22;;;;;;;8.25;4.20;;;;;;;-145.69;40.69;51953.28;5063175;28;20203;-81
2023/06/04 11:06:49;;;;;;;5.65;3.22;;;;;;;-145.69;41.93;51943.38;5058071;28;20250;-81
2023/06/04 11:09:16;;;;;;;6.15;3.65;;;;;;;-145.69;41.96;51917.63;5063915;28;20257;-84
2023/06/04 11:11:43;;;;;;;12.70;3.75;;;;;;;-145.69;40.38;51917.63;5058742;28;20680;-80
2023/06/04 11:14:12;;;;;;;7.78;3.83;;;;;;;-145.69;40.55;51905.75;5061711;28;20314;-79